createdAt,value
2019-03-30T00:00:04.924Z,0.00
2019-03-30T00:01:04.859Z,0.00
2019-03-30T00:02:04.846Z,0.00
2019-03-30T00:03:04.763Z,0.00
2019-03-30T00:04:04.731Z,0.00
2019-03-30T00:05:04.685Z,0.00
2019-03-30T00:06:04.637Z,0.00
2019-03-30T00:07:04.620Z,0.00
2019-03-30T00:08:04.576Z,0.00
2019-03-30T00:09:04.513Z,0.00
2019-03-30T00:10:04.472Z,0.00
2019-03-30T00:11:04.439Z,0.00
2019-03-30T00:12:04.415Z,0.00
2019-03-30T00:13:04.359Z,0.00
2019-03-30T00:14:04.303Z,0.00
2019-03-30T00:15:04.288Z,0.00
2019-03-30T00:16:04.225Z,0.00
2019-03-30T00:17:04.168Z,0.00
2019-03-30T00:18:04.133Z,0.00
2019-03-30T00:19:04.090Z,0.00
2019-03-30T00:20:04.070Z,0.00
2019-03-30T00:21:04.007Z,0.00
2019-03-30T00:22:03.961Z,0.00
2019-03-30T00:23:03.920Z,0.00
2019-03-30T00:24:03.875Z,0.00
2019-03-30T00:25:03.864Z,0.00
2019-03-30T00:26:03.787Z,0.00
2019-03-30T00:27:03.739Z,0.00
2019-03-30T00:28:03.701Z,0.00
2019-03-30T00:29:03.664Z,0.00
2019-03-30T00:30:03.646Z,0.00
2019-03-30T00:31:03.576Z,0.00
2019-03-30T00:32:03.550Z,0.00
2019-03-30T00:33:03.500Z,0.00
2019-03-30T00:34:03.445Z,0.00
2019-03-30T00:35:03.420Z,0.00
2019-03-30T00:36:03.362Z,0.00
2019-03-30T00:37:03.324Z,0.00
2019-03-30T00:38:03.266Z,0.00
2019-03-30T00:39:03.227Z,0.00
2019-03-30T00:40:03.210Z,0.00
2019-03-30T00:41:03.152Z,0.00
2019-03-30T00:42:03.107Z,0.00
2019-03-30T00:43:03.063Z,0.00
2019-03-30T00:44:03.026Z,0.00
2019-03-30T00:45:03.003Z,0.00
2019-03-30T00:46:02.928Z,0.00
2019-03-30T00:47:02.886Z,0.00
2019-03-30T00:48:02.843Z,0.00
2019-03-30T00:49:02.824Z,0.00
2019-03-30T00:50:02.793Z,0.00
2019-03-30T00:51:02.719Z,0.00
2019-03-30T00:52:02.669Z,0.00
2019-03-30T00:53:02.628Z,0.00
2019-03-30T00:54:02.595Z,0.00
2019-03-30T00:55:02.578Z,0.00
2019-03-30T00:56:02.510Z,0.00
2019-03-30T00:57:02.463Z,0.00
2019-03-30T00:58:02.415Z,0.00
2019-03-30T00:59:02.368Z,0.00
2019-03-30T01:00:02.332Z,0.00
2019-03-30T01:01:02.307Z,0.00
2019-03-30T01:02:02.251Z,0.00
2019-03-30T01:03:02.205Z,0.00
2019-03-30T01:04:02.162Z,0.00
2019-03-30T01:05:02.148Z,0.00
2019-03-30T01:06:02.070Z,0.00
2019-03-30T01:07:02.027Z,0.00
2019-03-30T01:08:01.992Z,0.00
2019-03-30T01:09:01.946Z,0.00
2019-03-30T01:10:01.908Z,0.00
2019-03-30T01:11:01.878Z,0.00
2019-03-30T01:12:01.809Z,0.00
2019-03-30T01:13:01.766Z,0.00
2019-03-30T01:14:01.754Z,0.00
2019-03-30T01:15:01.691Z,0.00
2019-03-30T01:16:01.643Z,0.00
2019-03-30T01:17:01.599Z,0.00
2019-03-30T01:18:01.548Z,0.00
2019-03-30T01:19:01.534Z,0.00
2019-03-30T01:20:03.159Z,0.00
2019-03-30T01:21:01.423Z,0.00
2019-03-30T01:22:01.383Z,0.00
2019-03-30T01:23:01.338Z,0.00
2019-03-30T01:24:01.291Z,0.00
2019-03-30T01:25:01.273Z,0.00
2019-03-30T01:26:01.214Z,0.00
2019-03-30T01:27:01.165Z,0.00
2019-03-30T01:28:01.123Z,0.00
2019-03-30T01:29:01.104Z,0.00
2019-03-30T01:30:01.028Z,0.00
2019-03-30T01:31:00.987Z,0.00
2019-03-30T01:32:00.943Z,0.00
2019-03-30T01:33:00.899Z,0.00
2019-03-30T01:34:00.884Z,0.00
2019-03-30T01:35:00.885Z,0.00
2019-03-30T01:36:00.775Z,0.00
2019-03-30T01:37:00.733Z,0.00
2019-03-30T01:38:00.690Z,0.00
2019-03-30T01:39:00.661Z,0.00
2019-03-30T01:40:00.603Z,0.00
2019-03-30T01:41:00.557Z,0.00
2019-03-30T01:42:00.509Z,0.00
2019-03-30T01:43:00.466Z,0.00
2019-03-30T01:44:00.449Z,0.00
2019-03-30T01:45:00.397Z,0.00
2019-03-30T01:46:00.370Z,0.00
2019-03-30T01:47:00.299Z,0.00
2019-03-30T01:48:00.257Z,0.00
2019-03-30T01:49:00.244Z,0.00
2019-03-30T01:50:00.374Z,0.00
2019-03-30T01:51:00.118Z,0.00
2019-03-30T01:52:00.076Z,0.00
2019-03-30T01:53:00.032Z,0.00
2019-03-30T01:53:59.993Z,0.00
2019-03-30T01:54:59.976Z,0.00
2019-03-30T01:55:59.924Z,0.00
2019-03-30T01:56:59.860Z,0.00
2019-03-30T01:57:59.818Z,0.00
2019-03-30T01:58:59.778Z,0.00
2019-03-30T01:59:59.735Z,0.00
2019-03-30T02:00:59.720Z,0.00
2019-03-30T02:01:59.642Z,0.00
2019-03-30T02:02:59.597Z,0.00
2019-03-30T02:03:59.552Z,0.00
2019-03-30T02:04:59.510Z,0.00
2019-03-30T02:05:59.472Z,0.00
2019-03-30T02:06:59.452Z,0.00
2019-03-30T02:07:59.409Z,0.00
2019-03-30T02:08:59.340Z,0.00
2019-03-30T02:09:59.307Z,0.00
2019-03-30T02:10:59.247Z,0.00
2019-03-30T02:11:59.231Z,0.00
2019-03-30T02:12:59.190Z,0.00
2019-03-30T02:13:59.115Z,0.00
2019-03-30T02:14:59.074Z,0.00
2019-03-30T02:15:59.030Z,0.00
2019-03-30T02:16:59.008Z,0.00
2019-03-30T02:17:58.975Z,0.00
2019-03-30T02:18:58.905Z,0.00
2019-03-30T02:19:58.864Z,0.00
2019-03-30T02:20:58.818Z,0.00
2019-03-30T02:21:58.768Z,0.00
2019-03-30T02:22:58.750Z,0.00
2019-03-30T02:23:58.680Z,0.00
2019-03-30T02:24:58.635Z,0.00
2019-03-30T02:25:58.598Z,0.00
2019-03-30T02:26:58.560Z,0.00
2019-03-30T02:27:58.506Z,0.00
2019-03-30T02:28:58.485Z,0.00
2019-03-30T02:29:58.425Z,0.00
2019-03-30T02:30:58.381Z,0.00
2019-03-30T02:31:58.336Z,0.00
2019-03-30T02:32:58.318Z,0.00
2019-03-30T02:33:58.246Z,0.00
2019-03-30T02:34:58.198Z,0.00
2019-03-30T02:35:58.179Z,0.00
2019-03-30T02:36:58.113Z,0.00
2019-03-30T02:37:58.095Z,0.00
2019-03-30T02:38:58.034Z,0.00
2019-03-30T02:39:57.990Z,0.00
2019-03-30T02:40:57.970Z,0.00
2019-03-30T02:41:57.894Z,0.00
2019-03-30T02:42:57.851Z,0.00
2019-03-30T02:43:57.812Z,0.00
2019-03-30T02:44:57.792Z,0.00
2019-03-30T02:45:57.721Z,0.00
2019-03-30T02:46:57.700Z,0.00
2019-03-30T02:47:57.627Z,0.00
2019-03-30T02:48:57.589Z,0.00
2019-03-30T02:49:57.548Z,0.00
2019-03-30T02:50:57.508Z,0.00
2019-03-30T02:51:57.489Z,0.00
2019-03-30T02:52:57.419Z,0.00
2019-03-30T02:53:57.366Z,0.00
2019-03-30T02:54:57.326Z,0.00
2019-03-30T02:55:57.277Z,0.00
2019-03-30T02:56:57.241Z,0.00
2019-03-30T02:57:57.226Z,0.00
2019-03-30T02:58:57.159Z,0.00
2019-03-30T02:59:57.106Z,0.00
2019-03-30T03:00:57.072Z,0.00
2019-03-30T03:01:57.025Z,0.00
2019-03-30T03:02:57.003Z,0.00
2019-03-30T03:03:56.940Z,0.00
2019-03-30T03:04:56.892Z,0.00
2019-03-30T03:05:56.844Z,0.00
2019-03-30T03:06:56.799Z,0.00
2019-03-30T03:07:56.781Z,0.00
2019-03-30T03:08:56.711Z,0.00
2019-03-30T03:09:56.671Z,0.00
2019-03-30T03:10:56.631Z,0.00
2019-03-30T03:11:56.594Z,0.00
2019-03-30T03:12:56.543Z,0.00
2019-03-30T03:13:56.513Z,0.00
2019-03-30T03:14:56.445Z,0.00
2019-03-30T03:15:56.410Z,0.00
2019-03-30T03:16:56.366Z,0.00
2019-03-30T03:17:56.314Z,0.00
2019-03-30T03:18:56.296Z,0.00
2019-03-30T03:19:56.228Z,0.00
2019-03-30T03:21:07.188Z,0.00
2019-03-30T03:21:56.156Z,0.00
2019-03-30T03:22:56.101Z,0.00
2019-03-30T03:23:56.091Z,0.00
2019-03-30T03:24:56.014Z,0.00
2019-03-30T03:25:55.964Z,0.00
2019-03-30T03:26:55.921Z,0.00
2019-03-30T03:27:55.877Z,0.00
2019-03-30T03:28:55.835Z,0.00
2019-03-30T03:29:55.817Z,0.00
2019-03-30T03:30:55.773Z,0.00
2019-03-30T03:31:55.744Z,0.00
2019-03-30T03:32:55.661Z,0.00
2019-03-30T03:33:55.625Z,0.00
2019-03-30T03:34:55.574Z,0.00
2019-03-30T03:35:55.530Z,0.00
2019-03-30T03:36:55.488Z,0.00
2019-03-30T03:37:55.457Z,0.00
2019-03-30T03:38:55.392Z,0.00
2019-03-30T03:39:55.349Z,0.00
2019-03-30T03:40:55.368Z,0.00
2019-03-30T03:41:55.266Z,0.00
2019-03-30T03:42:55.237Z,0.00
2019-03-30T03:43:55.179Z,0.00
2019-03-30T03:44:55.134Z,0.00
2019-03-30T03:45:55.106Z,0.00
2019-03-30T03:46:55.045Z,0.00
2019-03-30T03:47:55.028Z,0.00
2019-03-30T03:48:54.958Z,0.00
2019-03-30T03:49:54.916Z,0.00
2019-03-30T03:50:54.860Z,0.00
2019-03-30T03:51:54.824Z,0.00
2019-03-30T03:52:54.796Z,0.00
2019-03-30T03:53:54.740Z,0.00
2019-03-30T03:54:54.717Z,0.00
2019-03-30T03:55:54.669Z,0.00
2019-03-30T03:56:54.608Z,0.00
2019-03-30T03:57:54.576Z,0.00
2019-03-30T03:58:54.510Z,0.00
2019-03-30T03:59:54.464Z,0.00
2019-03-30T04:00:54.428Z,0.00
2019-03-30T04:01:54.410Z,0.00
2019-03-30T04:02:54.338Z,0.00
2019-03-30T04:03:54.287Z,0.00
2019-03-30T04:04:54.243Z,0.00
2019-03-30T04:05:54.219Z,0.00
2019-03-30T04:06:54.161Z,0.00
2019-03-30T04:07:54.140Z,0.00
2019-03-30T04:08:54.076Z,0.00
2019-03-30T04:09:54.019Z,0.00
2019-03-30T04:10:53.978Z,0.00
2019-03-30T04:11:53.932Z,0.00
2019-03-30T04:12:53.911Z,0.00
2019-03-30T04:13:53.876Z,0.00
2019-03-30T04:14:53.817Z,0.00
2019-03-30T04:15:53.846Z,0.00
2019-03-30T04:16:53.719Z,0.00
2019-03-30T04:17:53.699Z,0.00
2019-03-30T04:18:53.624Z,0.00
2019-03-30T04:19:53.586Z,0.00
2019-03-30T04:20:53.548Z,0.00
2019-03-30T04:21:53.492Z,0.00
2019-03-30T04:22:53.443Z,0.00
2019-03-30T04:23:54.506Z,0.00
2019-03-30T04:24:53.385Z,0.00
2019-03-30T04:25:53.348Z,0.00
2019-03-30T04:26:53.276Z,0.00
2019-03-30T04:27:53.231Z,0.00
2019-03-30T04:28:53.189Z,0.00
2019-03-30T04:29:53.141Z,0.00
2019-03-30T04:30:53.114Z,0.00
2019-03-30T04:31:53.049Z,0.00
2019-03-30T04:32:53.004Z,0.00
2019-03-30T04:33:52.967Z,0.00
2019-03-30T04:34:52.919Z,0.00
2019-03-30T04:35:52.907Z,0.00
2019-03-30T04:36:52.831Z,0.00
2019-03-30T04:37:52.789Z,0.00
2019-03-30T04:38:52.747Z,0.00
2019-03-30T04:39:52.701Z,0.00
2019-03-30T04:40:52.659Z,0.00
2019-03-30T04:41:52.627Z,0.00
2019-03-30T04:42:52.558Z,0.00
2019-03-30T04:43:52.516Z,0.00
2019-03-30T04:44:52.471Z,0.00
2019-03-30T04:45:52.455Z,0.00
2019-03-30T04:46:52.411Z,0.00
2019-03-30T04:47:52.345Z,0.00
2019-03-30T04:48:52.303Z,0.00
2019-03-30T04:49:52.249Z,0.00
2019-03-30T04:50:52.204Z,0.00
2019-03-30T04:51:57.766Z,0.00
2019-03-30T04:52:52.124Z,0.00
2019-03-30T04:53:52.071Z,0.00
2019-03-30T04:54:52.028Z,0.00
2019-03-30T04:55:51.986Z,0.00
2019-03-30T04:56:51.970Z,0.00
2019-03-30T04:57:51.902Z,0.00
2019-03-30T04:58:51.857Z,0.00
2019-03-30T04:59:51.811Z,0.00
2019-03-30T05:00:51.769Z,0.00
2019-03-30T05:01:51.719Z,0.00
2019-03-30T05:02:51.696Z,0.00
2019-03-30T05:03:51.630Z,5.63
2019-03-30T05:04:51.587Z,5.63
2019-03-30T05:05:51.551Z,5.63
2019-03-30T05:06:51.528Z,5.63
2019-03-30T05:07:51.476Z,5.63
2019-03-30T05:08:51.409Z,5.63
2019-03-30T05:09:51.371Z,11.25
2019-03-30T05:10:51.325Z,11.25
2019-03-30T05:11:51.281Z,11.25
2019-03-30T05:12:51.266Z,16.88
2019-03-30T05:13:51.186Z,16.88
2019-03-30T05:14:51.141Z,16.88
2019-03-30T05:15:51.096Z,22.50
2019-03-30T05:16:51.053Z,22.50
2019-03-30T05:17:51.042Z,28.13
2019-03-30T05:18:50.970Z,28.13
2019-03-30T05:19:50.955Z,33.75
2019-03-30T05:20:50.885Z,33.75
2019-03-30T05:21:50.831Z,39.38
2019-03-30T05:22:51.500Z,39.38
2019-03-30T05:23:50.751Z,45.00
2019-03-30T05:24:50.707Z,45.00
2019-03-30T05:25:50.684Z,50.63
2019-03-30T05:26:50.616Z,56.25
2019-03-30T05:27:50.567Z,61.88
2019-03-30T05:28:50.524Z,67.50
2019-03-30T05:29:50.483Z,67.50
2019-03-30T05:30:50.453Z,73.13
2019-03-30T05:31:50.422Z,78.75
2019-03-30T05:33:04.657Z,78.75
2019-03-30T05:33:50.306Z,78.75
2019-03-30T05:34:50.267Z,78.75
2019-03-30T05:35:50.243Z,84.38
2019-03-30T05:36:50.175Z,84.38
2019-03-30T05:37:50.125Z,90.00
2019-03-30T05:38:50.081Z,90.00
2019-03-30T05:39:50.074Z,95.63
2019-03-30T05:40:50.000Z,101.25
2019-03-30T05:41:49.949Z,101.25
2019-03-30T05:42:49.905Z,106.88
2019-03-30T05:43:49.862Z,112.50
2019-03-30T05:44:49.819Z,112.50
2019-03-30T05:45:49.802Z,118.13
2019-03-30T05:46:49.736Z,123.75
2019-03-30T05:47:49.693Z,129.38
2019-03-30T05:48:49.649Z,129.38
2019-03-30T05:49:49.598Z,135.00
2019-03-30T05:50:49.578Z,135.00
2019-03-30T05:51:49.532Z,140.63
2019-03-30T05:52:49.491Z,146.25
2019-03-30T05:53:49.430Z,146.25
2019-03-30T05:54:49.384Z,151.88
2019-03-30T05:55:49.339Z,151.88
2019-03-30T05:56:49.291Z,157.50
2019-03-30T05:57:49.252Z,157.50
2019-03-30T05:58:49.233Z,163.13
2019-03-30T05:59:49.169Z,163.13
2019-03-30T06:00:49.126Z,168.75
2019-03-30T06:01:49.071Z,174.38
2019-03-30T06:02:49.027Z,174.38
2019-03-30T06:03:49.007Z,174.38
2019-03-30T06:04:48.942Z,180.00
2019-03-30T06:05:48.904Z,180.00
2019-03-30T06:06:48.938Z,180.00
2019-03-30T06:07:48.819Z,185.63
2019-03-30T06:08:48.796Z,185.63
2019-03-30T06:09:48.723Z,185.63
2019-03-30T06:10:48.682Z,213.75
2019-03-30T06:11:48.646Z,258.75
2019-03-30T06:12:48.625Z,309.38
2019-03-30T06:13:48.552Z,337.50
2019-03-30T06:14:48.535Z,354.38
2019-03-30T06:15:48.465Z,360.00
2019-03-30T06:16:48.424Z,360.00
2019-03-30T06:17:48.391Z,371.25
2019-03-30T06:18:48.373Z,382.50
2019-03-30T06:19:48.306Z,388.13
2019-03-30T06:20:48.261Z,393.75
2019-03-30T06:21:48.210Z,399.38
2019-03-30T06:22:48.170Z,405.00
2019-03-30T06:23:48.747Z,410.63
2019-03-30T06:24:48.117Z,416.25
2019-03-30T06:25:48.051Z,421.88
2019-03-30T06:26:48.010Z,433.13
2019-03-30T06:27:47.966Z,433.13
2019-03-30T06:28:47.926Z,444.38
2019-03-30T06:29:47.890Z,455.63
2019-03-30T06:30:47.875Z,455.63
2019-03-30T06:31:47.862Z,461.25
2019-03-30T06:32:47.772Z,466.88
2019-03-30T06:33:47.725Z,472.50
2019-03-30T06:34:47.720Z,472.50
2019-03-30T06:35:47.668Z,483.75
2019-03-30T06:36:47.605Z,489.38
2019-03-30T06:37:47.567Z,489.38
2019-03-30T06:38:47.529Z,506.25
2019-03-30T06:39:47.495Z,511.88
2019-03-30T06:40:47.453Z,511.88
2019-03-30T06:41:47.431Z,517.50
2019-03-30T06:42:47.367Z,523.13
2019-03-30T06:43:47.335Z,528.75
2019-03-30T06:44:47.297Z,534.38
2019-03-30T06:45:47.251Z,540.00
2019-03-30T06:46:47.238Z,545.63
2019-03-30T06:47:47.177Z,556.88
2019-03-30T06:48:47.140Z,562.50
2019-03-30T06:49:47.105Z,573.75
2019-03-30T06:50:47.065Z,579.38
2019-03-30T06:51:47.028Z,590.63
2019-03-30T06:52:57.380Z,596.25
2019-03-30T06:53:46.943Z,607.50
2019-03-30T06:54:46.907Z,613.13
2019-03-30T06:55:46.869Z,624.38
2019-03-30T06:56:46.831Z,630.00
2019-03-30T06:57:46.801Z,635.63
2019-03-30T06:58:46.786Z,641.25
2019-03-30T06:59:46.718Z,646.88
2019-03-30T07:00:46.687Z,646.88
2019-03-30T07:01:46.673Z,663.75
2019-03-30T07:02:46.640Z,663.75
2019-03-30T07:03:46.575Z,663.75
2019-03-30T07:04:46.538Z,675.00
2019-03-30T07:05:46.492Z,675.00
2019-03-30T07:06:46.457Z,680.63
2019-03-30T07:07:46.419Z,691.88
2019-03-30T07:08:46.405Z,691.88
2019-03-30T07:09:46.350Z,703.13
2019-03-30T07:10:46.315Z,714.38
2019-03-30T07:11:46.283Z,720.00
2019-03-30T07:12:46.240Z,725.63
2019-03-30T07:13:46.224Z,736.88
2019-03-30T07:14:46.160Z,742.50
2019-03-30T07:15:46.128Z,765.00
2019-03-30T07:16:46.089Z,765.00
2019-03-30T07:17:46.233Z,776.25
2019-03-30T07:18:46.010Z,787.50
2019-03-30T07:19:45.995Z,787.50
2019-03-30T07:20:45.935Z,781.88
2019-03-30T07:21:45.904Z,793.13
2019-03-30T07:22:45.870Z,798.75
2019-03-30T07:23:45.830Z,815.63
2019-03-30T07:24:45.822Z,832.50
2019-03-30T07:25:45.764Z,832.50
2019-03-30T07:26:45.782Z,849.38
2019-03-30T07:27:45.677Z,860.63
2019-03-30T07:28:47.269Z,900.00
2019-03-30T07:29:45.611Z,939.38
2019-03-30T07:30:45.573Z,950.63
2019-03-30T07:31:45.584Z,990.00
2019-03-30T07:32:45.496Z,1063.13
2019-03-30T07:33:45.464Z,1125.00
2019-03-30T07:34:45.425Z,1057.50
2019-03-30T07:35:45.390Z,1029.38
2019-03-30T07:36:45.375Z,1035.00
2019-03-30T07:37:45.337Z,1046.25
2019-03-30T07:38:45.311Z,1046.25
2019-03-30T07:39:45.241Z,1035.00
2019-03-30T07:40:45.202Z,1074.38
2019-03-30T07:41:45.200Z,1153.13
2019-03-30T07:42:45.183Z,1338.75
2019-03-30T07:43:45.105Z,1558.13
2019-03-30T07:44:45.064Z,1569.38
2019-03-30T07:45:45.021Z,1350.00
2019-03-30T07:46:44.985Z,1411.88
2019-03-30T07:47:44.976Z,1625.63
2019-03-30T07:48:45.066Z,1625.63
2019-03-30T07:49:44.895Z,1496.25
2019-03-30T07:50:44.839Z,978.75
2019-03-30T07:51:44.832Z,1423.13
2019-03-30T07:52:44.792Z,1327.50
2019-03-30T07:53:45.172Z,1310.63
2019-03-30T07:54:44.701Z,1305.00
2019-03-30T07:55:44.677Z,1485.00
2019-03-30T07:56:44.635Z,1496.25
2019-03-30T07:57:44.632Z,1327.50
2019-03-30T07:58:44.562Z,1395.00
2019-03-30T07:59:44.566Z,1513.13
2019-03-30T08:00:44.577Z,1355.63
2019-03-30T08:01:44.456Z,1186.88
2019-03-30T08:02:44.426Z,1181.25
2019-03-30T08:03:44.409Z,1158.75
2019-03-30T08:04:44.346Z,1130.63
2019-03-30T08:05:44.321Z,1153.13
2019-03-30T08:06:44.411Z,1186.88
2019-03-30T08:07:44.428Z,1181.25
2019-03-30T08:08:44.240Z,1023.75
2019-03-30T08:09:44.276Z,1260.00
2019-03-30T08:10:44.142Z,877.50
2019-03-30T08:11:44.141Z,1316.25
2019-03-30T08:12:44.066Z,1051.88
2019-03-30T08:13:44.039Z,1231.88
2019-03-30T08:14:45.228Z,984.38
2019-03-30T08:15:43.973Z,1220.63
2019-03-30T08:16:43.940Z,916.88
2019-03-30T08:17:43.929Z,804.38
2019-03-30T08:18:43.881Z,1023.75
2019-03-30T08:19:43.825Z,759.38
2019-03-30T08:20:43.792Z,686.25
2019-03-30T08:21:43.751Z,646.88
2019-03-30T08:22:43.722Z,596.25
2019-03-30T08:23:43.687Z,691.88
2019-03-30T08:24:43.672Z,1012.50
2019-03-30T08:25:43.617Z,928.13
2019-03-30T08:26:43.637Z,1175.63
2019-03-30T08:27:43.570Z,1158.75
2019-03-30T08:28:43.513Z,1175.63
2019-03-30T08:29:43.467Z,1096.88
2019-03-30T08:30:43.433Z,1231.88
2019-03-30T08:31:43.410Z,1271.25
2019-03-30T08:32:43.468Z,1276.88
2019-03-30T08:33:43.336Z,1310.63
2019-03-30T08:34:43.298Z,1383.75
2019-03-30T08:35:43.256Z,1591.88
2019-03-30T08:36:43.383Z,1625.63
2019-03-30T08:37:43.198Z,1035.00
2019-03-30T08:38:43.219Z,742.50
2019-03-30T08:39:43.122Z,871.88
2019-03-30T08:40:43.145Z,1310.63
2019-03-30T08:41:43.047Z,1563.75
2019-03-30T08:42:43.163Z,1541.25
2019-03-30T08:43:43.099Z,1552.50
2019-03-30T08:44:42.966Z,1575.00
2019-03-30T08:45:42.919Z,1620.00
2019-03-30T08:46:42.887Z,1687.50
2019-03-30T08:47:42.852Z,1710.00
2019-03-30T08:48:42.835Z,1766.25
2019-03-30T08:49:42.769Z,1878.75
2019-03-30T08:50:42.758Z,2041.88
2019-03-30T08:51:42.787Z,2120.63
2019-03-30T08:52:42.677Z,2221.88
2019-03-30T08:53:53.997Z,2418.75
2019-03-30T08:54:42.622Z,2497.50
2019-03-30T08:55:42.569Z,2536.88
2019-03-30T08:56:42.536Z,2683.13
2019-03-30T08:57:42.509Z,2722.50
2019-03-30T08:58:42.501Z,2475.00
2019-03-30T08:59:42.464Z,2137.50
2019-03-30T09:00:42.410Z,1873.13
2019-03-30T09:01:42.372Z,1693.13
2019-03-30T09:02:42.337Z,1614.38
2019-03-30T09:03:42.344Z,1575.00
2019-03-30T09:04:42.300Z,1558.13
2019-03-30T09:05:42.244Z,1575.00
2019-03-30T09:06:42.212Z,1614.38
2019-03-30T09:07:42.265Z,1636.88
2019-03-30T09:08:42.139Z,1614.38
2019-03-30T09:09:42.113Z,1653.75
2019-03-30T09:10:42.101Z,1755.00
2019-03-30T09:11:43.548Z,1985.63
2019-03-30T09:12:42.039Z,2171.25
2019-03-30T09:13:41.974Z,2283.75
2019-03-30T09:14:41.943Z,2317.50
2019-03-30T09:15:41.938Z,2418.75
2019-03-30T09:16:41.933Z,2525.63
2019-03-30T09:17:41.852Z,2666.25
2019-03-30T09:18:41.820Z,2846.25
2019-03-30T09:19:41.788Z,2998.13
2019-03-30T09:20:41.757Z,3048.75
2019-03-30T09:21:41.741Z,2986.88
2019-03-30T09:22:41.686Z,3003.75
2019-03-30T09:23:41.679Z,2992.50
2019-03-30T09:24:41.649Z,2998.13
2019-03-30T09:25:41.610Z,2919.38
2019-03-30T09:26:41.580Z,3082.50
2019-03-30T09:27:41.532Z,3076.88
2019-03-30T09:28:41.494Z,3037.50
2019-03-30T09:29:41.468Z,3031.88
2019-03-30T09:30:41.467Z,3060.00
2019-03-30T09:31:41.405Z,3071.25
2019-03-30T09:32:44.819Z,3037.50
2019-03-30T09:33:41.335Z,3043.13
2019-03-30T09:34:41.303Z,3121.88
2019-03-30T09:35:41.300Z,3003.75
2019-03-30T09:36:41.335Z,2896.88
2019-03-30T09:37:41.217Z,3099.38
2019-03-30T09:38:41.183Z,3234.38
2019-03-30T09:39:41.151Z,3251.25
2019-03-30T09:40:41.143Z,3183.75
2019-03-30T09:41:41.096Z,3144.38
2019-03-30T09:42:41.059Z,3200.63
2019-03-30T09:43:41.030Z,3256.88
2019-03-30T09:44:40.994Z,3307.50
2019-03-30T09:45:40.979Z,3144.38
2019-03-30T09:46:40.924Z,3166.88
2019-03-30T09:47:40.919Z,3251.25
2019-03-30T09:48:40.864Z,3240.00
2019-03-30T09:49:40.838Z,3358.13
2019-03-30T09:50:40.808Z,3262.50
2019-03-30T09:51:40.781Z,3195.00
2019-03-30T09:52:40.770Z,3290.63
2019-03-30T09:53:40.716Z,3313.13
2019-03-30T09:54:40.686Z,3296.25
2019-03-30T09:55:40.738Z,3301.88
2019-03-30T09:56:40.631Z,3296.25
2019-03-30T09:57:40.584Z,3217.50
2019-03-30T09:58:40.609Z,3307.50
2019-03-30T09:59:40.524Z,3234.38
2019-03-30T10:00:40.495Z,3133.13
2019-03-30T10:01:40.471Z,3082.50
2019-03-30T10:02:40.475Z,2970.00
2019-03-30T10:03:40.414Z,3003.75
2019-03-30T10:04:40.404Z,3105.00
2019-03-30T10:05:40.335Z,3245.63
2019-03-30T10:06:40.303Z,3234.38
2019-03-30T10:07:40.290Z,3217.50
2019-03-30T10:08:40.244Z,3296.25
2019-03-30T10:09:40.240Z,3386.25
2019-03-30T10:10:40.192Z,3290.63
2019-03-30T10:11:40.149Z,3217.50
2019-03-30T10:12:40.134Z,3296.25
2019-03-30T10:13:40.098Z,3380.63
2019-03-30T10:14:40.092Z,3273.75
2019-03-30T10:15:40.062Z,3172.50
2019-03-30T10:16:40.006Z,3138.75
2019-03-30T10:17:39.977Z,3262.50
2019-03-30T10:18:39.937Z,3313.13
2019-03-30T10:19:39.926Z,3363.75
2019-03-30T10:20:39.880Z,3420.00
2019-03-30T10:21:39.853Z,3307.50
2019-03-30T10:22:42.221Z,3200.63
2019-03-30T10:23:39.793Z,3290.63
2019-03-30T10:24:39.799Z,3324.38
2019-03-30T10:25:39.731Z,3352.50
2019-03-30T10:26:39.703Z,3341.25
2019-03-30T10:27:39.662Z,3346.88
2019-03-30T10:28:39.660Z,3211.88
2019-03-30T10:29:39.654Z,3211.88
2019-03-30T10:30:39.572Z,3240.00
2019-03-30T10:31:39.532Z,3279.38
2019-03-30T10:32:39.786Z,3313.13
2019-03-30T10:33:39.493Z,3436.88
2019-03-30T10:34:39.878Z,3425.63
2019-03-30T10:35:39.518Z,3470.63
2019-03-30T10:36:39.510Z,3341.25
2019-03-30T10:37:39.512Z,3262.50
2019-03-30T10:38:39.346Z,3256.88
2019-03-30T10:39:39.320Z,3279.38
2019-03-30T10:40:39.283Z,3324.38
2019-03-30T10:41:39.258Z,3211.88
2019-03-30T10:42:39.210Z,3093.75
2019-03-30T10:43:39.257Z,3071.25
2019-03-30T10:44:39.192Z,3324.38
2019-03-30T10:45:39.125Z,3346.88
2019-03-30T10:46:39.104Z,3093.75
2019-03-30T10:47:39.070Z,3037.50
2019-03-30T10:48:39.048Z,3228.75
2019-03-30T10:49:39.007Z,3386.25
2019-03-30T10:50:38.994Z,3420.00
2019-03-30T10:51:38.946Z,3380.63
2019-03-30T10:52:38.926Z,3380.63
2019-03-30T10:53:38.904Z,3375.00
2019-03-30T10:54:51.956Z,3341.25
2019-03-30T10:55:38.845Z,3341.25
2019-03-30T10:56:38.800Z,3341.25
2019-03-30T10:57:38.757Z,3498.75
2019-03-30T10:58:38.740Z,3465.00
2019-03-30T10:59:38.720Z,3391.88
2019-03-30T11:00:38.737Z,3431.25
2019-03-30T11:01:38.637Z,3425.63
2019-03-30T11:02:38.622Z,3330.00
2019-03-30T11:03:38.606Z,3290.63
2019-03-30T11:04:38.570Z,3307.50
2019-03-30T11:05:38.702Z,3335.63
2019-03-30T11:06:38.489Z,3380.63
2019-03-30T11:07:38.475Z,3318.75
2019-03-30T11:08:38.429Z,3324.38
2019-03-30T11:09:38.411Z,3363.75
2019-03-30T11:10:38.392Z,3341.25
2019-03-30T11:11:38.369Z,3256.88
2019-03-30T11:12:38.317Z,3211.88
2019-03-30T11:13:38.303Z,3375.00
2019-03-30T11:14:39.198Z,3369.38
2019-03-30T11:15:38.238Z,3391.88
2019-03-30T11:16:38.188Z,3397.50
2019-03-30T11:17:38.165Z,3105.00
2019-03-30T11:18:38.131Z,1980.00
2019-03-30T11:19:38.112Z,3301.88
2019-03-30T11:20:38.097Z,3335.63
2019-03-30T11:21:38.043Z,3088.13
2019-03-30T11:22:38.025Z,3240.00
2019-03-30T11:23:37.978Z,3301.88
2019-03-30T11:24:37.963Z,3228.75
2019-03-30T11:25:37.961Z,3262.50
2019-03-30T11:26:37.907Z,3223.13
2019-03-30T11:27:37.875Z,3206.25
2019-03-30T11:28:37.836Z,3330.00
2019-03-30T11:29:37.883Z,3290.63
2019-03-30T11:30:37.766Z,3116.25
2019-03-30T11:31:37.770Z,3358.13
2019-03-30T11:32:37.748Z,3481.88
2019-03-30T11:33:37.670Z,3335.63
2019-03-30T11:34:37.672Z,2109.38
2019-03-30T11:35:37.638Z,2806.88
2019-03-30T11:36:37.600Z,3099.38
2019-03-30T11:37:37.636Z,1361.25
2019-03-30T11:38:37.531Z,3380.63
2019-03-30T11:39:37.536Z,3296.25
2019-03-30T11:40:37.594Z,3144.38
2019-03-30T11:41:37.464Z,3178.13
2019-03-30T11:42:37.412Z,3189.38
2019-03-30T11:43:37.376Z,3116.25
2019-03-30T11:44:37.373Z,2930.63
2019-03-30T11:45:37.324Z,3166.88
2019-03-30T11:46:37.285Z,3223.13
2019-03-30T11:47:37.441Z,3313.13
2019-03-30T11:48:37.726Z,3268.13
2019-03-30T11:49:37.190Z,3043.13
2019-03-30T11:50:37.171Z,3060.00
2019-03-30T11:51:37.142Z,3127.50
2019-03-30T11:52:37.106Z,3166.88
2019-03-30T11:53:37.099Z,3121.88
2019-03-30T11:54:37.042Z,3155.63
2019-03-30T11:55:37.147Z,3189.38
2019-03-30T11:56:36.982Z,3133.13
2019-03-30T11:57:37.025Z,3150.00
2019-03-30T11:58:36.936Z,3138.75
2019-03-30T11:59:36.927Z,3166.88
2019-03-30T12:00:36.875Z,3065.63
2019-03-30T12:01:36.834Z,2953.13
2019-03-30T12:02:36.825Z,3105.00
2019-03-30T12:03:36.795Z,2064.38
2019-03-30T12:04:36.739Z,3015.00
2019-03-30T12:05:36.737Z,3127.50
2019-03-30T12:06:36.706Z,3037.50
2019-03-30T12:07:36.722Z,2981.25
2019-03-30T12:08:36.645Z,2958.75
2019-03-30T12:09:36.619Z,2947.50
2019-03-30T12:10:36.571Z,2958.75
2019-03-30T12:11:36.529Z,2846.25
2019-03-30T12:12:37.556Z,3054.38
2019-03-30T12:13:36.481Z,2970.00
2019-03-30T12:14:36.429Z,2981.25
2019-03-30T12:15:36.398Z,2885.63
2019-03-30T12:16:36.381Z,3003.75
2019-03-30T12:17:36.383Z,3043.13
2019-03-30T12:18:36.317Z,2941.88
2019-03-30T12:19:36.294Z,2902.50
2019-03-30T12:20:36.244Z,2919.38
2019-03-30T12:21:36.235Z,2998.13
2019-03-30T12:22:36.187Z,2958.75
2019-03-30T12:23:36.186Z,2868.75
2019-03-30T12:24:36.139Z,2773.13
2019-03-30T12:25:36.323Z,2722.50
2019-03-30T12:26:36.072Z,2767.50
2019-03-30T12:27:36.031Z,2874.38
2019-03-30T12:28:36.033Z,2790.00
2019-03-30T12:29:35.978Z,2801.25
2019-03-30T12:30:35.964Z,2930.63
2019-03-30T12:31:35.926Z,2801.25
2019-03-30T12:32:35.908Z,2643.75
2019-03-30T12:33:35.849Z,2761.88
2019-03-30T12:34:35.822Z,2863.13
2019-03-30T12:35:35.795Z,2818.13
2019-03-30T12:36:35.753Z,2683.13
2019-03-30T12:37:35.742Z,2750.63
2019-03-30T12:38:35.687Z,2711.25